Time;durP1;ratioP1;P1;durP2;ratioP2;P2;SDS_P1;SDS_P2;PMS_P1;PMS_P2;Temp;Humidity;BMP_temperature;BMP_pressure;BME280_temperature;BME280_humidity;BME280_pressure;Samples;Min_cycle;Max_cycle;Signal;HPM_P1;HPM_P2
2021/12/02 00:01:42;;;;;;;5.93;3.20;;;;;;;5.09;99.52;98947.78;6702460;26;33960;-82
2021/12/02 00:04:45;;;;;;;2.87;2.53;;;;;;;5.13;99.55;98957.00;6703249;26;34218;-81
2021/12/02 00:07:48;;;;;;;8.30;2.70;;;;;;;5.26;98.83;98957.53;6702991;26;35207;-82
2021/12/02 00:10:51;;;;;;;5.53;2.80;;;;;;;5.29;98.70;98953.00;6704006;26;33329;-82
2021/12/02 00:13:58;;;;;;;6.70;2.90;;;;;;;5.25;98.22;98950.63;6702795;26;35140;-82
2021/12/02 00:17:07;;;;;;;4.30;2.62;;;;;;;5.27;98.69;98942.66;6703327;26;34401;-82
2021/12/02 00:23:47;;;;;;;4.35;2.75;;;;;;;5.39;98.73;98935.44;6703202;26;34419;-83
2021/12/02 00:26:51;;;;;;;3.62;2.55;;;;;;;5.45;98.03;98936.66;6702237;26;34184;-83
2021/12/02 00:29:57;;;;;;;6.35;2.70;;;;;;;5.52;97.24;98938.59;6705164;26;34034;-83
2021/12/02 00:33:04;;;;;;;6.35;2.78;;;;;;;5.64;96.08;98939.25;6704600;26;34018;-82
2021/12/02 00:36:08;;;;;;;4.62;2.28;;;;;;;5.74;95.89;98941.84;6702500;26;34846;-82
2021/12/02 00:39:16;;;;;;;5.18;2.45;;;;;;;5.69;95.23;98933.56;6703460;26;34367;-82
2021/12/02 00:42:20;;;;;;;4.82;2.58;;;;;;;5.75;94.75;98937.41;6703901;26;33834;-82
2021/12/02 00:45:26;;;;;;;4.35;2.78;;;;;;;5.80;94.86;98936.00;6703699;26;35339;-82
2021/12/02 00:48:30;;;;;;;4.55;2.70;;;;;;;5.77;94.95;98941.56;6703342;26;34345;-82
2021/12/02 00:51:34;;;;;;;5.37;2.50;;;;;;;5.73;95.38;98940.19;6702615;26;34500;-82
2021/12/02 00:54:42;;;;;;;4.70;2.80;;;;;;;5.83;95.37;98943.59;6706426;26;34391;-82
2021/12/02 00:57:45;;;;;;;7.60;2.90;;;;;;;5.97;95.11;98941.47;6705610;26;34725;-82
2021/12/02 01:00:50;;;;;;;4.87;2.60;;;;;;;5.78;96.60;98940.59;6702134;26;34208;-82
2021/12/02 01:03:58;;;;;;;4.60;2.80;;;;;;;5.71;97.05;98952.62;6703557;26;34249;-82
2021/12/02 01:07:01;;;;;;;6.30;3.00;;;;;;;5.75;96.50;98940.87;6702446;26;34873;-81
2021/12/02 01:10:05;;;;;;;4.43;2.50;;;;;;;5.80;96.23;98945.69;6703034;26;34264;-81
2021/12/02 01:13:14;;;;;;;7.95;3.12;;;;;;;5.75;96.47;98954.00;6702730;26;34049;-81
2021/12/02 01:16:19;;;;;;;6.60;2.67;;;;;;;5.72;96.60;98951.66;6704056;26;34178;-81
2021/12/02 01:19:22;;;;;;;5.78;2.75;;;;;;;5.67;97.47;98956.50;6702274;26;34279;-81
2021/12/02 01:22:28;;;;;;;5.87;2.65;;;;;;;5.71;97.21;98957.87;6702011;26;34377;-81
2021/12/02 01:25:31;;;;;;;6.70;2.90;;;;;;;5.69;97.56;98957.16;6703459;26;33935;-81
2021/12/02 01:28:35;;;;;;;3.53;2.70;;;;;;;5.77;96.32;98953.84;6706977;26;34176;-81
2021/12/02 01:31:38;;;;;;;4.60;2.72;;;;;;;5.78;96.46;98943.22;6702905;26;34227;-82
2021/12/02 01:34:45;;;;;;;7.75;2.97;;;;;;;5.74;96.81;98941.84;6702458;26;34373;-82
2021/12/02 01:37:48;;;;;;;6.72;2.83;;;;;;;5.78;96.54;98945.84;6703938;26;34227;-82
2021/12/02 01:40:51;;;;;;;5.10;2.67;;;;;;;5.81;96.79;98942.91;6701729;26;34191;-82
2021/12/02 01:43:57;;;;;;;4.40;2.90;;;;;;;5.82;96.28;98944.56;6703260;26;33991;-81
2021/12/02 01:47:00;;;;;;;6.18;2.97;;;;;;;5.80;96.14;98936.00;6703018;26;34817;-81
2021/12/02 01:50:09;;;;;;;5.25;2.70;;;;;;;5.87;95.28;98937.09;6702905;26;34244;-81
2021/12/02 01:53:15;;;;;;;4.55;2.72;;;;;;;5.91;95.14;98942.06;6703242;26;35029;-81
2021/12/02 01:56:23;;;;;;;6.78;2.70;;;;;;;5.83;95.34;98940.16;6703859;26;34282;-81
2021/12/02 01:59:28;;;;;;;5.72;2.92;;;;;;;5.84;95.03;98940.00;6704463;26;34380;-81
2021/12/02 02:02:38;;;;;;;7.75;2.45;;;;;;;5.81;95.39;98932.41;6703113;26;34576;-82
2021/12/02 02:05:50;;;;;;;7.10;2.70;;;;;;;5.84;95.36;98941.81;6705451;26;34806;-82
2021/12/02 02:08:57;;;;;;;3.35;2.60;;;;;;;5.87;94.80;98931.84;6703088;26;34048;-82
2021/12/02 02:12:03;;;;;;;6.47;2.90;;;;;;;5.85;95.44;98928.53;6702856;26;34206;-82
2021/12/02 02:15:11;;;;;;;6.87;2.80;;;;;;;5.87;95.26;98926.59;6706739;26;34960;-82
2021/12/02 02:18:21;;;;;;;5.75;2.70;;;;;;;5.93;94.82;98925.19;6704818;26;35490;-82
2021/12/02 02:21:24;;;;;;;7.55;2.87;;;;;;;5.90;94.56;98924.66;6704500;26;34252;-82
2021/12/02 02:24:28;;;;;;;6.70;3.00;;;;;;;5.95;95.05;98927.66;6703517;26;34264;-82
2021/12/02 02:27:31;;;;;;;6.15;2.65;;;;;;;5.98;94.34;98922.12;6705319;26;34519;-82
2021/12/02 02:30:34;;;;;;;7.62;2.70;;;;;;;5.95;94.54;98914.53;6705232;26;34271;-82
2021/12/02 02:33:39;;;;;;;5.50;3.10;;;;;;;5.96;94.44;98918.81;6702399;26;35560;-82
2021/12/02 02:36:59;;;;;;;7.55;2.78;;;;;;;6.00;93.52;98917.59;6702283;26;33787;-81
2021/12/02 02:40:07;;;;;;;6.53;3.25;;;;;;;5.96;93.74;98918.81;6702260;26;34263;-81
2021/12/02 02:43:12;;;;;;;7.65;2.90;;;;;;;5.81;94.94;98903.53;6703759;26;34201;-81
2021/12/02 02:46:23;;;;;;;4.43;2.72;;;;;;;5.78;95.16;98909.09;6704541;26;34040;-82
2021/12/02 02:49:28;;;;;;;7.47;2.85;;;;;;;5.75;95.30;98914.62;6703779;26;35371;-82
2021/12/02 02:52:32;;;;;;;6.53;3.10;;;;;;;5.73;95.72;98916.56;6704999;26;34047;-82
2021/12/02 02:55:38;;;;;;;6.37;3.10;;;;;;;5.73;95.76;98921.81;6704160;26;34567;-82
2021/12/02 02:58:53;;;;;;;8.10;3.50;;;;;;;5.73;95.97;98919.19;6704248;26;34307;-82
2021/12/02 03:05:26;;;;;;;9.43;3.35;;;;;;;5.63;97.02;98918.41;6703494;26;34311;-82
2021/12/02 03:08:39;;;;;;;10.70;3.55;;;;;;;5.61;98.17;98915.09;6702723;26;33918;-82
2021/12/02 03:11:46;;;;;;;6.20;3.40;;;;;;;5.60;98.38;98918.69;6704330;26;34247;-83
2021/12/02 03:18:13;;;;;;;6.95;3.17;;;;;;;5.57;98.80;98914.56;6703269;26;34019;-82
2021/12/02 03:21:21;;;;;;;5.57;3.20;;;;;;;5.51;99.03;98905.47;6702643;26;34352;-82
2021/12/02 03:24:24;;;;;;;5.40;3.15;;;;;;;5.47;99.54;98906.69;6704777;26;34018;-82
2021/12/02 03:27:27;;;;;;;8.02;3.25;;;;;;;5.47;99.53;98906.69;6702830;26;34416;-82
2021/12/02 03:30:32;;;;;;;7.72;3.28;;;;;;;5.63;99.04;98918.41;6703822;26;34507;-82
2021/12/02 03:33:37;;;;;;;6.47;3.55;;;;;;;5.55;99.97;98917.31;6703385;26;35027;-83
2021/12/02 03:36:40;;;;;;;6.97;3.37;;;;;;;5.59;99.69;98919.66;6702946;26;35769;-82
2021/12/02 03:39:43;;;;;;;5.50;3.30;;;;;;;5.50;100.00;98924.78;6703568;26;34007;-82
2021/12/02 03:42:51;;;;;;;5.78;3.20;;;;;;;5.40;100.00;98918.75;6703532;26;34627;-82
2021/12/02 03:46:04;;;;;;;6.20;3.37;;;;;;;5.23;100.00;98912.44;6703222;26;34008;-82
2021/12/02 03:49:07;;;;;;;6.10;3.20;;;;;;;5.32;100.00;98916.00;6703577;26;35484;-82
2021/12/02 03:52:10;;;;;;;9.82;3.45;;;;;;;5.13;100.00;98912.44;6704840;26;34854;-82
2021/12/02 03:55:13;;;;;;;8.45;3.50;;;;;;;5.03;100.00;98907.22;6704652;26;34166;-82
2021/12/02 03:58:16;;;;;;;8.82;3.45;;;;;;;5.02;100.00;98909.97;6704019;26;34329;-82
2021/12/02 04:01:23;;;;;;;6.85;3.50;;;;;;;4.98;100.00;98898.13;6705219;26;34494;-82
2021/12/02 04:04:29;;;;;;;9.88;3.67;;;;;;;5.01;100.00;98908.34;6706897;26;34688;-82
2021/12/02 04:07:34;;;;;;;8.55;3.40;;;;;;;5.01;100.00;98908.34;6703797;26;35053;-82
2021/12/02 04:10:40;;;;;;;9.98;3.33;;;;;;;5.03;100.00;98916.88;6702676;26;34182;-82
2021/12/02 04:17:07;;;;;;;6.85;3.08;;;;;;;5.17;100.00;98908.56;6704955;26;34458;-82
2021/12/02 04:20:15;;;;;;;8.55;3.30;;;;;;;5.08;100.00;98914.66;6702718;26;34534;-82
2021/12/02 04:23:18;;;;;;;;;;;;;;;5.05;100.00;98904.44;6702965;26;34977;-82
2021/12/02 04:26:22;;;;;;;7.93;3.10;;;;;;;5.05;100.00;98914.94;6703148;26;34620;-83
2021/12/02 04:29:38;;;;;;;9.07;3.30;;;;;;;5.00;100.00;98917.97;6702039;26;34053;-82
2021/12/02 04:32:45;;;;;;;6.22;3.22;;;;;;;4.98;100.00;98916.47;6702630;26;34510;-82
2021/12/02 04:35:48;;;;;;;7.00;3.47;;;;;;;5.02;100.00;98930.94;6703247;26;33918;-82
2021/12/02 04:38:51;;;;;;;4.55;3.08;;;;;;;5.04;100.00;98921.13;6702273;26;34461;-82
2021/12/02 04:41:54;;;;;;;6.97;2.97;;;;;;;5.05;100.00;98915.78;6700870;26;33793;-82
2021/12/02 04:44:59;;;;;;;3.70;2.83;;;;;;;5.07;100.00;98913.00;6702693;26;34446;-82
2021/12/02 04:48:02;;;;;;;6.30;3.10;;;;;;;5.12;100.00;98926.53;6702889;26;34351;-82
2021/12/02 04:51:05;;;;;;;7.57;3.47;;;;;;;5.11;100.00;98924.88;6702588;26;34619;-83
2021/12/02 04:54:10;;;;;;;6.28;3.00;;;;;;;5.15;100.00;98918.37;6706443;26;34040;-83
2021/12/02 04:57:13;;;;;;;8.52;3.60;;;;;;;5.19;100.00;98911.87;6685578;26;34815;-84
2021/12/02 05:00:21;;;;;;;9.00;3.95;;;;;;;5.21;100.00;98909.97;6707922;26;35618;-83
2021/12/02 05:03:26;;;;;;;8.38;3.45;;;;;;;5.21;100.00;98899.47;6706104;26;34915;-83
2021/12/02 05:06:29;;;;;;;12.07;3.55;;;;;;;5.20;100.00;98892.56;6707175;26;34404;-83
2021/12/02 05:09:32;;;;;;;9.63;4.12;;;;;;;5.19;100.00;98888.28;6705602;26;34612;-84
2021/12/02 05:12:36;;;;;;;9.80;3.62;;;;;;;5.17;100.00;98887.59;6709391;26;35312;-85
2021/12/02 05:15:41;;;;;;;6.03;3.78;;;;;;;5.16;100.00;98900.84;6706429;26;35375;-84
2021/12/02 05:18:44;;;;;;;10.70;4.15;;;;;;;5.12;100.00;98910.81;6705142;26;34266;-84
2021/12/02 05:21:47;;;;;;;10.13;4.47;;;;;;;5.07;100.00;98920.88;6705106;26;32939;-84
2021/12/02 05:24:50;;;;;;;9.93;4.00;;;;;;;5.03;100.00;98933.44;6684277;26;34711;-84
2021/12/02 05:27:53;;;;;;;9.38;4.00;;;;;;;5.10;100.00;98925.84;6705612;26;34233;-84
2021/12/02 05:30:55;;;;;;;8.98;3.87;;;;;;;5.11;100.00;98919.63;6704350;26;34401;-83
2021/12/02 05:33:58;;;;;;;8.27;3.85;;;;;;;5.13;100.00;98917.69;6705448;26;33809;-84
2021/12/02 05:37:01;;;;;;;9.02;3.60;;;;;;;5.14;100.00;98914.09;6707603;26;34344;-84
2021/12/02 05:40:04;;;;;;;7.93;3.78;;;;;;;5.16;100.00;98917.41;6707239;26;35481;-83
2021/12/02 05:43:12;;;;;;;8.63;3.70;;;;;;;5.15;100.00;98907.06;6707062;26;34592;-85
2021/12/02 05:46:18;;;;;;;9.75;3.75;;;;;;;5.14;100.00;98908.84;6707311;26;33683;-84
2021/12/02 05:49:21;;;;;;;6.97;3.22;;;;;;;5.23;100.00;98905.41;6706196;26;34329;-84
2021/12/02 05:52:23;;;;;;;6.68;3.67;;;;;;;5.20;100.00;98903.06;6708105;26;33826;-84
2021/12/02 05:55:26;;;;;;;13.23;3.90;;;;;;;5.13;100.00;98904.56;6707028;26;34493;-83
2021/12/02 05:58:29;;;;;;;7.57;3.53;;;;;;;5.10;100.00;98897.00;6704984;26;34350;-84
2021/12/02 06:01:34;;;;;;;10.65;3.80;;;;;;;5.07;100.00;98898.09;6708108;26;34905;-84
2021/12/02 06:04:39;;;;;;;9.93;3.85;;;;;;;5.05;100.00;98900.06;6706705;26;33895;-83
2021/12/02 06:07:42;;;;;;;11.68;4.37;;;;;;;5.03;100.00;98901.13;6707281;26;34519;-84
2021/12/02 06:10:48;;;;;;;12.43;4.90;;;;;;;5.18;100.00;98896.31;6706703;26;34353;-84
2021/12/02 06:13:50;;;;;;;8.30;4.10;;;;;;;5.03;100.00;98888.03;6704794;26;35429;-84
2021/12/02 06:16:55;;;;;;;13.50;4.25;;;;;;;4.99;100.00;98902.41;6706413;26;33967;-84
2021/12/02 06:19:57;;;;;;;11.12;4.45;;;;;;;4.97;100.00;98909.56;6705538;26;34659;-83
2021/12/02 06:23:03;;;;;;;10.05;4.47;;;;;;;5.09;100.00;98911.06;6707394;26;34267;-84
2021/12/02 06:26:06;;;;;;;12.85;5.03;;;;;;;5.22;100.00;98914.25;6705071;26;35161;-84
2021/12/02 06:29:09;;;;;;;10.85;5.07;;;;;;;5.22;100.00;98911.63;6685589;26;33874;-83
2021/12/02 06:32:12;;;;;;;12.75;5.43;;;;;;;5.23;100.00;98910.66;6702247;26;32699;-83
2021/12/02 06:35:15;;;;;;;15.50;5.18;;;;;;;5.31;100.00;98909.91;6703611;26;35196;-82
2021/12/02 06:38:21;;;;;;;18.73;6.60;;;;;;;5.30;100.00;98915.31;6702112;26;35185;-83
2021/12/02 06:41:24;;;;;;;15.48;5.12;;;;;;;5.36;100.00;98923.44;6701534;26;34198;-82
2021/12/02 06:44:28;;;;;;;14.55;5.30;;;;;;;5.30;100.00;98917.94;6703538;26;34411;-82
2021/12/02 06:47:35;;;;;;;14.45;4.95;;;;;;;5.33;100.00;98918.47;6700631;26;34340;-82
2021/12/02 06:50:38;;;;;;;13.70;5.60;;;;;;;5.34;100.00;98924.56;6703708;26;34655;-82
2021/12/02 06:53:48;;;;;;;13.38;5.32;;;;;;;5.39;100.00;98932.81;6701407;26;33849;-82
2021/12/02 06:56:53;;;;;;;18.00;5.78;;;;;;;5.54;100.00;98936.66;6700845;26;32890;-82
2021/12/02 06:59:56;;;;;;;12.15;5.25;;;;;;;5.56;100.00;98934.72;6701379;26;33904;-82
2021/12/02 07:03:01;;;;;;;15.10;5.47;;;;;;;5.54;100.00;98920.91;6700363;26;35143;-82
2021/12/02 07:06:04;;;;;;;12.88;5.72;;;;;;;5.60;100.00;98929.16;6701593;26;34258;-82
2021/12/02 07:09:06;;;;;;;13.15;5.47;;;;;;;5.53;100.00;98924.50;6701613;26;34851;-82
2021/12/02 07:12:09;;;;;;;14.87;6.30;;;;;;;5.51;100.00;98931.69;6701703;26;34700;-81
2021/12/02 07:18:20;;;;;;;14.50;5.55;;;;;;;5.45;100.00;98948.00;6701508;26;34149;-82
2021/12/02 07:21:24;;;;;;;14.45;5.78;;;;;;;5.47;100.00;98956.53;6703830;26;35080;-82
2021/12/02 07:24:30;;;;;;;17.70;5.57;;;;;;;5.47;100.00;98961.78;6701999;26;34278;-83
2021/12/02 07:27:43;;;;;;;19.30;6.93;;;;;;;5.49;100.00;98954.59;6700886;26;33919;-82
2021/12/02 07:30:52;;;;;;;17.17;6.85;;;;;;;5.48;100.00;98952.94;6702260;26;35272;-82
2021/12/02 07:33:57;;;;;;;19.90;7.60;;;;;;;5.50;100.00;98945.78;6700697;26;34039;-82
2021/12/02 07:37:02;;;;;;;19.70;7.90;;;;;;;5.49;100.00;98949.34;6702434;26;34797;-82
2021/12/02 07:40:08;;;;;;;22.73;8.43;;;;;;;5.56;100.00;98950.47;6706215;26;34524;-82
2021/12/02 07:43:14;;;;;;;19.37;8.93;;;;;;;5.43;100.00;98960.44;6703236;26;34575;-82
2021/12/02 07:46:17;;;;;;;19.90;9.35;;;;;;;5.30;100.00;98967.75;6705341;26;33792;-82
2021/12/02 07:49:20;;;;;;;23.25;8.93;;;;;;;5.26;100.00;98960.16;6702142;26;34880;-82
2021/12/02 07:52:25;;;;;;;21.23;9.15;;;;;;;5.21;100.00;98966.78;6702771;26;34452;-84
2021/12/02 07:55:29;;;;;;;27.42;8.77;;;;;;;5.14;100.00;98966.53;6702817;26;33837;-83
2021/12/02 07:58:33;;;;;;;21.95;8.73;;;;;;;5.07;100.00;98975.91;6704171;26;34018;-83
2021/12/02 08:01:36;;;;;;;21.98;7.95;;;;;;;5.04;100.00;98973.56;6703298;26;33987;-83
2021/12/02 08:04:39;;;;;;;15.85;6.93;;;;;;;5.08;100.00;98974.97;6702527;26;34857;-82
2021/12/02 08:07:44;;;;;;;19.37;7.75;;;;;;;5.08;100.00;98967.91;6704130;26;34324;-82
2021/12/02 08:10:48;;;;;;;17.87;7.35;;;;;;;5.13;100.00;98970.09;6704708;26;34000;-83
2021/12/02 08:13:56;;;;;;;17.90;6.95;;;;;;;5.06;100.00;98969.03;6708794;26;33988;-82
2021/12/02 08:17:00;;;;;;;16.62;6.85;;;;;;;5.09;100.00;98966.94;6704225;26;34193;-82
2021/12/02 08:20:03;;;;;;;19.58;6.30;;;;;;;5.12;100.00;98968.47;6703262;26;34088;-82
2021/12/02 08:23:09;;;;;;;16.70;6.05;;;;;;;5.09;100.00;98974.00;6702793;26;34350;-82
2021/12/02 08:26:13;;;;;;;18.60;7.05;;;;;;;5.06;100.00;98975.09;6702724;26;34093;-83
2021/12/02 08:29:16;;;;;;;16.45;6.97;;;;;;;5.04;100.00;98976.19;6701383;26;34477;-82
2021/12/02 08:32:19;;;;;;;22.50;7.75;;;;;;;5.10;100.00;98979.09;6701881;26;34219;-83
2021/12/02 08:35:23;;;;;;;22.08;7.18;;;;;;;5.15;100.00;98993.59;6700477;26;34868;-82
2021/12/02 08:38:32;;;;;;;23.75;9.00;;;;;;;5.15;100.00;98990.97;6699734;26;35045;-82
2021/12/02 08:41:39;;;;;;;19.02;7.10;;;;;;;5.19;100.00;99001.03;6700824;26;34840;-82
2021/12/02 08:44:42;;;;;;;20.27;6.57;;;;;;;5.21;100.00;98999.09;6700501;26;35667;-82
2021/12/02 08:47:45;;;;;;;19.05;7.12;;;;;;;5.29;100.00;99000.19;6701287;26;34351;-82
2021/12/02 08:50:48;;;;;;;19.92;6.68;;;;;;;5.35;100.00;99010.13;6700379;26;33995;-81
2021/12/02 08:53:50;;;;;;;16.17;6.68;;;;;;;5.40;100.00;99013.16;6700227;26;34168;-81
2021/12/02 08:56:55;;;;;;;17.98;7.18;;;;;;;5.45;100.00;99010.97;6699854;26;34530;-82
2021/12/02 09:00:00;;;;;;;20.80;8.13;;;;;;;5.49;100.00;99006.25;6700180;26;34630;-82
2021/12/02 09:03:06;;;;;;;18.83;7.57;;;;;;;5.50;100.00;99007.91;6680010;26;34759;-81
2021/12/02 09:06:21;;;;;;;20.00;7.53;;;;;;;5.56;100.00;99007.34;6699687;26;33984;-81
2021/12/02 09:09:26;;;;;;;18.02;7.20;;;;;;;5.64;100.00;99006.62;6699486;26;34533;-81
2021/12/02 09:12:51;;;;;;;26.73;8.98;;;;;;;5.68;100.00;99000.16;6699152;26;34618;-80
2021/12/02 09:15:54;;;;;;;18.08;7.40;;;;;;;5.73;100.00;99000.53;6698832;26;34648;-81
2021/12/02 09:18:57;;;;;;;21.62;8.63;;;;;;;5.74;100.00;98989.06;6700173;26;34226;-81
2021/12/02 09:22:03;;;;;;;21.10;8.05;;;;;;;5.72;100.00;98988.37;6700302;26;34555;-81
2021/12/02 09:25:07;;;;;;;19.05;7.65;;;;;;;5.78;100.00;98990.47;6704568;26;34008;-82
2021/12/02 09:28:10;;;;;;;19.48;8.43;;;;;;;5.83;100.00;98982.97;6700017;26;34245;-82
2021/12/02 09:31:13;;;;;;;18.25;7.45;;;;;;;5.85;100.00;98982.84;6699196;26;33996;-81
2021/12/02 09:34:16;;;;;;;21.75;9.10;;;;;;;5.91;100.00;98979.63;6698556;26;34535;-80
2021/12/02 09:37:19;;;;;;;22.25;8.60;;;;;;;5.75;100.00;98969.75;6698730;26;34599;-80
2021/12/02 09:40:25;;;;;;;24.83;8.85;;;;;;;5.51;100.00;98963.16;6700361;26;33934;-80
2021/12/02 09:43:27;;;;;;;22.30;10.07;;;;;;;5.48;100.00;98968.69;6698612;26;34123;-80
2021/12/02 09:46:30;;;;;;;23.62;10.77;;;;;;;5.40;100.00;98972.00;6698007;26;34394;-80
2021/12/02 09:49:38;;;;;;;28.57;11.67;;;;;;;5.40;100.00;98958.91;6698010;26;34705;-80
2021/12/02 09:52:43;;;;;;;26.98;12.20;;;;;;;5.51;100.00;98957.91;6697926;26;34201;-81
2021/12/02 09:58:55;;;;;;;25.02;11.38;;;;;;;5.57;100.00;98957.34;6700091;26;34521;-81
2021/12/02 10:02:07;;;;;;;25.15;10.93;;;;;;;5.64;100.00;98952.34;6699016;26;34801;-80
2021/12/02 10:05:13;;;;;;;31.33;11.70;;;;;;;5.62;100.00;98951.69;6698613;26;33779;-80
2021/12/02 10:08:29;;;;;;;27.95;12.77;;;;;;;5.61;100.00;98949.19;6698063;26;34435;-80
2021/12/02 10:11:47;;;;;;;26.85;13.00;;;;;;;5.52;100.00;98949.09;6699150;26;34673;-81
2021/12/02 10:14:54;;;;;;;33.33;14.52;;;;;;;5.49;100.00;98949.34;6699636;26;34961;-80
2021/12/02 10:18:09;;;;;;;29.30;14.15;;;;;;;5.31;100.00;98945.81;6698793;26;34259;-80
2021/12/02 10:21:16;;;;;;;31.30;14.73;;;;;;;5.24;100.00;98933.25;6701429;26;34610;-79
2021/12/02 10:24:23;;;;;;;31.40;15.15;;;;;;;5.26;100.00;98918.22;6698759;26;34470;-79
2021/12/02 10:27:26;;;;;;;24.30;11.48;;;;;;;5.24;100.00;98919.31;6699738;26;34060;-81
2021/12/02 10:30:29;;;;;;;25.33;11.63;;;;;;;5.26;100.00;98920.03;6699052;26;34448;-80
2021/12/02 10:33:33;;;;;;;26.08;11.85;;;;;;;5.35;100.00;98918.31;6699570;26;34637;-80
2021/12/02 10:36:40;;;;;;;27.45;12.75;;;;;;;5.38;100.00;98912.81;6698973;26;34704;-81
2021/12/02 10:39:58;;;;;;;26.33;13.25;;;;;;;5.40;100.00;98916.13;6699232;26;33927;-81
2021/12/02 10:43:08;;;;;;;26.02;13.52;;;;;;;5.49;100.00;98911.81;6700386;26;34540;-81
2021/12/02 10:46:19;;;;;;;26.67;12.98;;;;;;;5.53;100.00;98908.78;6699498;26;34069;-79
2021/12/02 10:49:23;;;;;;;25.37;12.48;;;;;;;5.52;100.00;98904.50;6698069;26;34007;-81
2021/12/02 10:52:32;;;;;;;27.23;14.00;;;;;;;5.57;100.00;98904.88;6699486;26;34444;-80
2021/12/02 10:55:35;;;;;;;23.77;11.70;;;;;;;5.57;100.00;98909.31;6698348;26;34304;-82
2021/12/02 10:58:39;;;;;;;26.23;12.07;;;;;;;5.53;100.00;98900.91;6698821;26;33754;-83
2021/12/02 11:01:42;;;;;;;24.23;12.00;;;;;;;5.44;100.00;98901.75;6699494;26;34480;-83
2021/12/02 11:04:47;;;;;;;23.73;12.65;;;;;;;5.42;100.00;98895.81;6706251;26;34379;-80
2021/12/02 11:08:08;;;;;;;26.83;10.82;;;;;;;5.43;100.00;98884.38;6709686;26;35337;-80
2021/12/02 11:11:22;;;;;;;20.33;9.23;;;;;;;5.43;100.00;98886.16;6700331;26;34700;-81
2021/12/02 11:14:32;;;;;;;19.55;8.88;;;;;;;5.44;100.00;98882.56;6700299;26;35041;-82
2021/12/02 11:17:51;;;;;;;18.75;8.35;;;;;;;5.45;100.00;98879.81;6701527;26;34307;-80
2021/12/02 11:20:58;;;;;;;19.62;8.27;;;;;;;5.45;100.00;98879.81;6700516;26;34521;-82
2021/12/02 11:24:00;;;;;;;18.27;7.20;;;;;;;5.38;100.00;98873.47;6700510;26;34939;-80
2021/12/02 11:27:12;;;;;;;20.25;9.18;;;;;;;5.38;100.00;98873.47;6700036;26;33746;-79
2021/12/02 11:30:20;;;;;;;24.15;9.45;;;;;;;5.37;100.00;98869.19;6699555;26;34210;-79
2021/12/02 11:33:35;;;;;;;20.00;8.77;;;;;;;5.37;100.00;98877.06;6699745;26;34265;-80
2021/12/02 11:36:38;;;;;;;17.83;7.45;;;;;;;5.36;100.00;98865.75;6701629;26;34202;-83
2021/12/02 11:39:43;;;;;;;14.55;6.15;;;;;;;5.35;100.00;98868.50;6700332;26;34564;-82
2021/12/02 11:42:50;;;;;;;14.98;5.72;;;;;;;5.39;100.00;98865.47;6700224;26;35074;-81
2021/12/02 11:45:54;;;;;;;14.90;5.60;;;;;;;5.34;100.00;98862.44;6699598;26;33931;-80
2021/12/02 11:48:59;;;;;;;11.10;5.30;;;;;;;5.24;100.00;98861.62;6698892;26;33770;-80
2021/12/02 11:52:02;;;;;;;11.52;4.93;;;;;;;5.24;100.00;98862.47;6702330;26;35085;-81
2021/12/02 11:55:15;;;;;;;11.30;4.80;;;;;;;5.37;100.00;98856.06;6699216;26;34212;-81
2021/12/02 11:58:19;;;;;;;11.10;4.85;;;;;;;5.30;100.00;98862.88;6705631;26;33942;-81
2021/12/02 12:01:26;;;;;;;10.95;4.50;;;;;;;5.20;100.00;98860.25;6700096;26;34006;-80
2021/12/02 12:04:31;;;;;;;9.38;4.37;;;;;;;5.14;100.00;98845.94;6701843;26;34033;-81
2021/12/02 12:07:43;;;;;;;10.85;4.30;;;;;;;5.15;100.00;98852.81;6701832;26;34295;-81
2021/12/02 12:10:58;;;;;;;9.38;4.40;;;;;;;5.24;100.00;98846.72;6700487;26;33909;-81
2021/12/02 12:14:06;;;;;;;9.10;4.32;;;;;;;5.26;100.00;98849.22;6700296;26;34167;-80
2021/12/02 12:17:11;;;;;;;13.45;4.80;;;;;;;5.29;100.00;98848.09;6700903;26;34558;-81
2021/12/02 12:20:17;;;;;;;12.82;5.15;;;;;;;5.31;100.00;98846.16;6701416;26;33955;-81
2021/12/02 12:23:33;;;;;;;11.93;5.47;;;;;;;5.29;100.00;98846.31;6700390;26;34187;-81
2021/12/02 12:26:40;;;;;;;13.15;5.00;;;;;;;5.41;100.00;98846.97;6699467;26;34397;-80
2021/12/02 12:29:47;;;;;;;12.00;5.18;;;;;;;5.23;100.00;98841.63;6700122;26;34256;-79
2021/12/02 12:36:13;;;;;;;15.00;5.07;;;;;;;5.19;100.00;98814.03;6700744;26;34183;-79
2021/12/02 12:39:22;;;;;;;11.93;5.00;;;;;;;5.15;100.00;98820.56;6700116;26;34907;-79
2021/12/02 12:42:26;;;;;;;10.60;5.00;;;;;;;5.22;100.00;98827.72;6699683;26;33985;-82
2021/12/02 12:45:39;;;;;;;9.57;4.05;;;;;;;5.14;100.00;98819.72;6698719;26;34595;-81
2021/12/02 12:48:55;;;;;;;10.40;4.20;;;;;;;5.12;100.00;98816.44;6701389;26;33764;-79
2021/12/02 12:51:58;;;;;;;7.40;3.03;;;;;;;5.09;100.00;98814.09;6700581;26;34014;-79
2021/12/02 12:55:18;;;;;;;10.18;3.90;;;;;;;5.13;100.00;98812.00;6699476;26;34243;-79
2021/12/02 12:58:27;;;;;;;6.72;3.40;;;;;;;5.16;100.00;98823.03;6700039;26;34396;-81
2021/12/02 13:01:29;;;;;;;;;;;;;;;5.16;100.00;98823.03;6702492;26;33874;-81
2021/12/02 13:04:48;;;;;;;5.68;3.30;;;;;;;5.17;100.00;98827.28;6700594;26;35047;-80
2021/12/02 13:08:26;;;;;;;9.00;4.10;;;;;;;5.19;100.00;98827.16;6699987;26;34597;-80
2021/12/02 13:11:32;;;;;;;9.27;4.12;;;;;;;5.16;100.00;98816.97;6699511;26;34011;-81
2021/12/02 13:14:42;;;;;;;;;;;;;;;5.22;100.00;98814.59;6700103;26;33738;-82
2021/12/02 13:17:44;;;;;;;5.12;3.40;;;;;;;5.29;100.00;98800.91;6699461;26;35579;-81
2021/12/02 13:20:48;;;;;;;11.18;3.90;;;;;;;5.13;100.00;98804.94;6701348;26;34395;-81
2021/12/02 13:24:14;;;;;;;9.80;3.97;;;;;;;5.10;100.00;98811.31;6702402;26;34270;-81
2021/12/02 13:27:24;;;;;;;9.80;3.87;;;;;;;5.10;100.00;98792.16;6701214;26;34270;-80
2021/12/02 13:30:26;;;;;;;9.50;3.92;;;;;;;5.16;100.00;98798.59;6701359;26;34910;-82
2021/12/02 13:33:35;;;;;;;10.48;4.18;;;;;;;5.34;100.00;98803.94;6702271;26;34472;-81
2021/12/02 13:36:43;;;;;;;8.23;3.58;;;;;;;5.19;100.00;98807.00;6699979;26;36662;-82
2021/12/02 13:39:45;;;;;;;7.87;4.10;;;;;;;5.22;100.00;98817.22;6700071;26;34284;-80
2021/12/02 13:42:58;;;;;;;9.95;4.28;;;;;;;5.15;100.00;98823.16;6699886;26;34185;-80
2021/12/02 13:46:11;;;;;;;7.35;3.75;;;;;;;5.13;100.00;98828.53;6700077;26;34092;-81
2021/12/02 13:49:20;;;;;;;10.35;4.28;;;;;;;5.13;100.00;98818.06;6702357;26;34483;-80
2021/12/02 13:52:31;;;;;;;14.07;4.95;;;;;;;5.14;100.00;98819.72;6702063;26;34046;-82
2021/12/02 13:55:37;;;;;;;12.48;5.00;;;;;;;5.16;100.00;98820.41;6700226;26;34737;-81
2021/12/02 13:58:40;;;;;;;13.25;5.45;;;;;;;5.16;100.00;98823.03;6699700;26;34347;-82
2021/12/02 14:01:56;;;;;;;13.02;4.47;;;;;;;5.06;100.00;98816.97;6699665;26;34213;-81
2021/12/02 14:04:59;;;;;;;9.65;4.37;;;;;;;5.08;100.00;98812.44;6699128;26;34042;-80
2021/12/02 14:08:14;;;;;;;12.35;5.07;;;;;;;5.03;100.00;98806.78;6700335;26;34555;-80
2021/12/02 14:11:17;;;;;;;11.50;4.55;;;;;;;5.05;100.00;98810.09;6699649;26;34229;-80
2021/12/02 14:14:20;;;;;;;15.85;5.25;;;;;;;5.04;100.00;98814.50;6699778;26;34266;-80
2021/12/02 14:17:56;;;;;;;15.63;5.32;;;;;;;5.01;100.00;98811.34;6699695;26;34052;-80
2021/12/02 14:21:07;;;;;;;12.15;5.30;;;;;;;4.91;100.00;98814.78;6700118;26;34722;-80
2021/12/02 14:24:11;;;;;;;12.52;5.00;;;;;;;4.87;100.00;98802.13;6699975;26;34697;-81
2021/12/02 14:27:16;;;;;;;15.20;4.80;;;;;;;4.85;100.00;98789.16;6698958;26;34219;-82
2021/12/02 14:30:19;;;;;;;9.10;4.32;;;;;;;4.86;100.00;98782.97;6701142;26;35046;-80
2021/12/02 14:33:40;;;;;;;13.95;5.32;;;;;;;4.82;100.00;98789.44;6701961;26;34502;-81
2021/12/02 14:36:46;;;;;;;13.85;5.25;;;;;;;4.87;100.00;98797.72;6699795;26;33917;-81
2021/12/02 14:39:50;;;;;;;11.38;5.15;;;;;;;4.79;100.00;98810.69;6700383;26;34451;-81
2021/12/02 14:42:53;;;;;;;13.82;5.47;;;;;;;4.75;100.00;98830.28;6700086;26;35148;-80
2021/12/02 14:46:17;;;;;;;15.82;6.12;;;;;;;4.75;100.00;98832.91;6699646;26;35096;-80
2021/12/02 14:49:32;;;;;;;18.45;6.85;;;;;;;4.70;100.00;98840.34;6699553;26;34278;-80
2021/12/02 14:52:36;;;;;;;19.42;7.53;;;;;;;4.69;100.00;98851.78;6701812;26;34952;-80
2021/12/02 14:55:43;;;;;;;17.90;7.07;;;;;;;4.64;100.00;98845.19;6700914;26;33880;-80
2021/12/02 14:59:22;;;;;;;19.10;7.60;;;;;;;4.64;100.00;98832.09;6700392;26;34198;-81